Time;durP1;ratioP1;P1;durP2;ratioP2;P2;SDS_P1;SDS_P2;PMS_P1;PMS_P2;Temp;Humidity;BMP_temperature;BMP_pressure;BME280_temperature;BME280_humidity;BME280_pressure;Samples;Min_cycle;Max_cycle;Signal;HPM_P1;HPM_P2
2022/04/15 00:01:23;;;;;;;27.00;19.80;;;;;;;12.17;61.00;99980.98;212867;1277;140462;-66
2022/04/15 00:06:26;;;;;;;27.00;18.80;;;;;;;12.21;61.05;99979.89;213973;1277;140679;-67
2022/04/15 00:11:31;;;;;;;23.70;19.10;;;;;;;12.26;61.50;99982.79;214577;1277;140446;-64
2022/04/15 00:16:34;;;;;;;21.90;16.30;;;;;;;12.31;61.57;99977.70;213090;1278;140601;-70
2022/04/15 00:21:36;;;;;;;22.70;16.80;;;;;;;12.33;61.74;99979.19;214114;1276;140158;-71
2022/04/15 00:26:39;;;;;;;19.60;16.30;;;;;;;12.32;61.87;99976.12;213523;1277;140648;-71
2022/04/15 00:31:42;;;;;;;19.20;13.60;;;;;;;12.30;62.34;99975.17;214040;1277;143491;-70
2022/04/15 00:36:45;;;;;;;16.50;14.60;;;;;;;12.24;62.12;99978.77;213166;1276;140582;-70
2022/04/15 00:41:47;;;;;;;25.20;14.80;;;;;;;12.18;62.33;99982.36;213170;1277;142008;-68
2022/04/15 00:46:49;;;;;;;21.10;14.20;;;;;;;12.11;62.58;99978.80;213294;1277;141437;-70
2022/04/15 00:51:53;;;;;;;22.90;14.50;;;;;;;12.05;62.79;99980.38;213673;1277;141127;-69
2022/04/15 00:56:58;;;;;;;28.30;18.30;;;;;;;11.97;62.87;99982.73;213603;1277;142085;-69
2022/04/15 01:02:04;;;;;;;31.50;19.30;;;;;;;11.92;62.83;99986.48;213447;1276;141323;-72
2022/04/15 01:07:11;;;;;;;24.40;18.70;;;;;;;11.90;62.78;99987.15;214373;1276;143268;-67
2022/04/15 01:12:16;;;;;;;31.10;20.90;;;;;;;11.87;62.95;99982.23;213316;1276;140434;-66
2022/04/15 01:17:19;;;;;;;22.90;17.10;;;;;;;11.85;62.64;99980.48;214168;1276;140297;-67
2022/04/15 01:22:28;;;;;;;24.30;17.60;;;;;;;11.84;62.84;99987.98;214044;1277;140401;-67
2022/04/15 01:27:36;;;;;;;29.10;17.80;;;;;;;11.80;62.73;99985.54;214957;1278;140092;-66
2022/04/15 01:32:40;;;;;;;27.30;18.40;;;;;;;11.76;62.43;99988.77;214326;1276;140422;-67
2022/04/15 01:37:44;;;;;;;34.30;22.40;;;;;;;11.71;62.56;99983.04;214162;1277;140339;-67
2022/04/15 01:42:48;;;;;;;34.50;22.70;;;;;;;11.73;62.25;99976.89;214409;1278;140455;-68
2022/04/15 01:47:52;;;;;;;38.90;22.90;;;;;;;11.78;62.46;99974.89;214686;1277;140220;-69
2022/04/15 01:52:56;;;;;;;30.90;21.50;;;;;;;11.83;62.35;99972.05;213287;1276;139546;-67
2022/04/15 01:57:59;;;;;;;36.40;24.70;;;;;;;11.86;62.41;99970.73;214126;1277;140449;-66
2022/04/15 02:03:02;;;;;;;33.40;21.30;;;;;;;11.85;62.32;99973.95;214592;1277;140786;-69
2022/04/15 02:08:05;;;;;;;35.80;21.80;;;;;;;11.81;62.46;99971.59;212955;1278;140051;-70
2022/04/15 02:13:07;;;;;;;28.00;20.80;;;;;;;11.76;62.48;99973.23;214222;1277;139988;-69
2022/04/15 02:18:10;;;;;;;31.10;22.30;;;;;;;11.69;62.66;99974.83;213157;1276;140843;-68
2022/04/15 02:23:14;;;;;;;26.10;20.40;;;;;;;11.65;62.52;99982.42;213410;1277;140084;-67
2022/04/15 02:28:16;;;;;;;24.60;19.40;;;;;;;11.57;62.51;99972.94;213739;1277;142629;-68
2022/04/15 02:33:22;;;;;;;36.40;23.00;;;;;;;11.48;62.66;99965.31;212956;1277;140153;-69
2022/04/15 02:38:25;;;;;;;36.70;22.40;;;;;;;11.44;62.80;99973.56;213861;1277;141226;-68
2022/04/15 02:43:32;;;;;;;32.60;21.90;;;;;;;11.45;62.94;99981.64;212982;1279;141342;-68
2022/04/15 02:48:35;;;;;;;36.90;22.90;;;;;;;11.45;63.06;99988.81;212974;1277;140669;-66
2022/04/15 02:53:38;;;;;;;40.40;22.00;;;;;;;11.41;63.44;99977.30;213803;1277;140387;-67
2022/04/15 02:58:41;;;;;;;32.70;22.10;;;;;;;11.36;63.54;99983.15;213662;1277;139649;-68
2022/04/15 03:03:43;;;;;;;27.10;21.10;;;;;;;11.33;63.65;99979.83;214203;1277;139773;-71
2022/04/15 03:08:45;;;;;;;26.50;18.50;;;;;;;11.31;63.73;99984.36;214930;1277;140182;-72
2022/04/15 03:13:47;;;;;;;32.40;22.10;;;;;;;11.26;64.00;99985.61;213062;1277;140284;-68
2022/04/15 03:18:51;;;;;;;30.40;22.20;;;;;;;11.23;64.22;99995.40;213112;1277;141646;-70
2022/04/15 03:23:53;;;;;;;27.20;20.50;;;;;;;11.25;64.83;99996.85;213821;1277;141160;-74
2022/04/15 03:28:59;;;;;;;29.20;20.20;;;;;;;11.30;65.34;100004.06;213825;1277;142932;-74
2022/04/15 03:34:06;;;;;;;23.90;17.50;;;;;;;11.28;66.04;100008.55;215821;1275;142342;-72
2022/04/15 03:39:09;;;;;;;25.50;17.40;;;;;;;11.25;66.73;100006.15;215805;1276;141927;-71
2022/04/15 03:44:11;;;;;;;20.00;16.80;;;;;;;11.21;67.03;100008.77;215143;1277;141370;-70
2022/04/15 03:49:14;;;;;;;17.00;15.00;;;;;;;11.20;67.93;100011.36;214842;1277;141750;-71
2022/04/15 03:54:17;;;;;;;17.90;12.60;;;;;;;11.20;68.25;100016.70;214153;1277;141826;-68
2022/04/15 03:59:20;;;;;;;18.00;14.80;;;;;;;11.17;68.84;100021.52;214515;1279;142202;-66
2022/04/15 04:04:23;;;;;;;22.90;16.00;;;;;;;11.18;69.38;100022.67;213860;1276;141527;-69
2022/04/15 04:09:26;;;;;;;16.40;12.60;;;;;;;11.24;69.87;100017.63;212991;1276;141698;-70
2022/04/15 04:14:30;;;;;;;15.40;12.40;;;;;;;11.25;70.12;100017.84;214136;1276;143840;-69
2022/04/15 04:19:33;;;;;;;16.10;11.20;;;;;;;11.30;70.57;100020.55;214263;1276;142448;-71
2022/04/15 04:24:36;;;;;;;14.70;12.30;;;;;;;11.32;70.89;100023.90;213055;1278;142842;-71
2022/04/15 04:29:39;;;;;;;14.60;10.90;;;;;;;11.39;71.11;100013.11;213363;1279;142631;-71
2022/04/15 04:34:41;;;;;;;14.40;11.80;;;;;;;11.43;71.43;100015.67;213811;1276;141958;-70
2022/04/15 04:39:45;;;;;;;12.80;11.00;;;;;;;11.47;71.53;100021.80;212775;1277;142541;-67
2022/04/15 04:44:48;;;;;;;18.20;12.10;;;;;;;11.51;71.96;100026.73;213089;1278;141308;-73
2022/04/15 04:49:52;;;;;;;13.60;10.50;;;;;;;11.48;71.96;100032.33;212939;1277;143334;-71
2022/04/15 04:54:55;;;;;;;15.20;12.10;;;;;;;11.43;71.94;100028.04;213096;1278;142464;-70
2022/04/15 04:59:58;;;;;;;16.60;10.90;;;;;;;11.44;72.62;100015.56;213582;1277;141859;-72
2022/04/15 05:05:01;;;;;;;16.20;11.80;;;;;;;11.50;72.66;100013.38;214302;1277;141334;-72
2022/04/15 05:10:05;;;;;;;16.50;14.00;;;;;;;11.57;72.64;100021.33;213879;1276;141548;-73
2022/04/15 05:15:09;;;;;;;14.90;12.10;;;;;;;11.62;72.82;100023.02;213604;1276;142150;-69
2022/04/15 05:20:11;;;;;;;14.50;11.90;;;;;;;11.65;72.76;100024.98;213694;1277;141493;-75
2022/04/15 05:25:13;;;;;;;15.20;12.70;;;;;;;11.66;73.04;100029.65;213425;1276;142040;-68
2022/04/15 05:30:16;;;;;;;16.40;14.30;;;;;;;11.68;73.14;100028.73;214185;1277;142378;-70
2022/04/15 05:35:18;;;;;;;22.60;13.90;;;;;;;11.73;73.33;100033.92;213370;1276;142459;-69
2022/04/15 05:40:22;;;;;;;17.30;13.40;;;;;;;11.75;73.31;100037.27;212851;1278;143098;-70
2022/04/15 05:45:25;;;;;;;20.50;15.20;;;;;;;11.76;73.60;100044.39;214775;1278;143368;-72
2022/04/15 05:50:28;;;;;;;17.40;14.40;;;;;;;11.73;73.40;100051.35;212662;1276;142188;-65
2022/04/15 05:55:33;;;;;;;19.10;15.20;;;;;;;11.71;73.67;100053.43;212921;1276;141403;-73
2022/04/15 06:00:37;;;;;;;22.60;17.80;;;;;;;11.67;73.60;100055.10;214303;1278;143417;-73
2022/04/15 06:05:40;;;;;;;24.70;17.70;;;;;;;11.62;73.87;100056.45;212985;1277;141645;-72
2022/04/15 06:10:43;;;;;;;25.10;19.20;;;;;;;11.59;73.95;100049.04;214003;1276;141454;-74
2022/04/15 06:15:56;;;;;;;26.70;18.40;;;;;;;11.62;74.30;100054.04;214079;1277;141310;-72
2022/04/15 06:21:00;;;;;;;26.60;19.30;;;;;;;11.71;74.43;100058.30;213904;1276;141375;-72
2022/04/15 06:26:03;;;;;;;27.60;18.90;;;;;;;11.77;74.31;100059.95;214115;1277;141278;-70
2022/04/15 06:31:06;;;;;;;24.30;19.00;;;;;;;11.77;74.30;100060.12;213329;1278;140620;-70
2022/04/15 06:36:09;;;;;;;31.60;21.20;;;;;;;11.80;74.49;100058.75;212870;1276;140470;-71
2022/04/15 06:41:12;;;;;;;25.80;18.60;;;;;;;12.02;74.80;100054.29;213526;1278;141107;-68
2022/04/15 06:46:15;;;;;;;22.80;18.60;;;;;;;12.26;74.60;100051.45;212779;1279;140844;-71
2022/04/15 06:51:18;;;;;;;25.40;16.70;;;;;;;12.52;74.98;100057.19;213014;1277;141329;-69
2022/04/15 06:56:22;;;;;;;19.40;15.40;;;;;;;12.70;74.64;100054.77;213447;1277;140852;-68
2022/04/15 07:01:26;;;;;;;19.20;14.40;;;;;;;12.83;74.79;100058.22;212991;1278;142155;-66
2022/04/15 07:06:29;;;;;;;16.90;13.90;;;;;;;12.75;73.89;100063.22;213202;1278;141956;-71
2022/04/15 07:11:32;;;;;;;14.50;13.00;;;;;;;12.61;73.71;100066.96;213552;1278;140410;-70
2022/04/15 07:16:35;;;;;;;16.40;12.50;;;;;;;12.60;73.78;100065.34;213906;1276;141287;-71
2022/04/15 07:21:40;;;;;;;16.60;13.10;;;;;;;12.60;73.85;100067.00;213949;1277;141053;-68
2022/04/15 07:26:43;;;;;;;20.30;15.80;;;;;;;12.54;73.85;100069.49;214425;1278;142060;-70
2022/04/15 07:31:47;;;;;;;20.00;14.30;;;;;;;12.68;73.62;100073.67;214441;1278;140714;-67
2022/04/15 07:36:57;;;;;;;21.50;13.90;;;;;;;12.94;73.99;100077.92;214728;1278;140935;-72
2022/04/15 07:42:00;;;;;;;21.70;14.60;;;;;;;12.93;73.39;100075.92;215748;1278;142545;-72
2022/04/15 07:47:11;;;;;;;15.60;11.40;;;;;;;12.88;73.52;100085.26;215441;1277;141178;-66
2022/04/15 07:52:14;;;;;;;11.50;8.40;;;;;;;13.06;73.49;100080.77;215412;1278;159526;-68
2022/04/15 07:57:17;;;;;;;17.40;10.00;;;;;;;13.34;73.18;100087.45;215492;1276;141563;-68
2022/04/15 08:02:24;;;;;;;10.90;8.30;;;;;;;13.51;72.70;100086.90;215091;1276;143339;-68
2022/04/15 08:07:27;;;;;;;10.60;8.00;;;;;;;13.63;72.14;100088.48;213534;1277;141646;-70
2022/04/15 08:12:30;;;;;;;10.90;8.80;;;;;;;13.74;71.70;100094.42;214175;1277;143234;-74
2022/04/15 08:17:35;;;;;;;9.80;8.40;;;;;;;13.86;71.70;100096.30;213162;1277;144030;-69
2022/04/15 08:22:39;;;;;;;14.80;9.80;;;;;;;13.91;71.35;100100.11;213906;1277;144884;-71
2022/04/15 08:27:43;;;;;;;10.80;9.60;;;;;;;13.82;71.15;100105.04;213588;1276;141167;-68
2022/04/15 08:32:53;;;;;;;10.80;9.10;;;;;;;13.72;71.02;100108.76;214758;1276;142930;-70
2022/04/15 08:37:56;;;;;;;12.70;10.50;;;;;;;14.13;71.30;100105.86;212727;1277;142406;-68
2022/04/15 08:43:05;;;;;;;9.10;6.00;;;;;;;14.90;71.26;100105.10;212966;1277;144631;-70
2022/04/15 08:48:09;;;;;;;8.90;5.80;;;;;;;15.29;69.97;100106.45;213572;1277;141630;-72
2022/04/15 08:53:15;;;;;;;11.90;8.40;;;;;;;15.28;68.67;100109.95;213295;1277;141084;-66
2022/04/15 08:58:19;;;;;;;8.10;7.10;;;;;;;15.22;68.23;100115.28;213238;1277;142486;-74
2022/04/15 09:03:22;;;;;;;8.40;6.90;;;;;;;15.16;68.04;100121.94;213545;1279;141532;-71
2022/04/15 09:08:25;;;;;;;10.30;8.50;;;;;;;15.13;67.57;100124.85;214552;1277;141338;-69
2022/04/15 09:13:31;;;;;;;9.10;8.20;;;;;;;15.20;67.33;100126.38;213419;1277;142146;-74
2022/04/15 09:18:36;;;;;;;6.40;5.80;;;;;;;15.17;66.65;100124.58;213663;1276;142130;-67
2022/04/15 09:23:55;;;;;;;6.30;5.00;;;;;;;15.20;66.37;100124.02;213940;1276;140956;-68
2022/04/15 09:28:59;;;;;;;10.30;5.60;;;;;;;15.41;65.98;100122.83;213073;1277;140876;-72
2022/04/15 09:34:03;;;;;;;6.90;5.40;;;;;;;15.67;65.50;100128.42;214532;1278;140449;-71
2022/04/15 09:39:14;;;;;;;5.70;4.40;;;;;;;15.79;64.81;100123.84;214911;1276;139787;-66
2022/04/15 09:44:21;;;;;;;6.30;4.70;;;;;;;15.98;64.57;100117.65;214973;1277;140570;-68
2022/04/15 09:49:25;;;;;;;6.50;5.00;;;;;;;16.26;64.19;100107.20;214030;1276;139791;-73
2022/04/15 09:54:28;;;;;;;5.90;4.80;;;;;;;16.58;63.74;100106.23;215622;1277;140634;-73
2022/04/15 09:59:32;;;;;;;2.90;2.30;;;;;;;16.94;63.21;100094.75;214913;1277;140215;-69
2022/04/15 10:04:36;;;;;;;2.60;2.40;;;;;;;17.14;62.31;100093.52;215784;1276;139133;-67
2022/04/15 10:09:42;;;;;;;2.80;2.40;;;;;;;17.43;61.93;100088.23;214568;1277;140724;-73
2022/04/15 10:14:46;;;;;;;2.80;2.30;;;;;;;17.54;60.76;100085.04;214934;1279;141495;-74
2022/04/15 10:19:50;;;;;;;3.00;2.80;;;;;;;17.51;60.35;100086.91;214957;1277;139763;-68
2022/04/15 10:24:53;;;;;;;2.90;2.70;;;;;;;17.41;59.42;100084.30;213861;1277;141362;-73
2022/04/15 10:30:18;;;;;;;3.00;2.70;;;;;;;17.27;59.09;100083.98;214426;1277;141617;-71
2022/04/15 10:35:33;;;;;;;3.70;3.10;;;;;;;17.36;58.80;100078.10;213273;1277;140143;-73
2022/04/15 10:40:43;;;;;;;3.20;2.90;;;;;;;17.70;58.32;100075.75;213895;1279;140002;-69
2022/04/15 10:45:48;;;;;;;4.10;2.70;;;;;;;17.87;57.90;100070.86;213150;1277;139639;-70
2022/04/15 10:50:52;;;;;;;3.50;3.20;;;;;;;17.72;57.08;100065.36;213341;1277;863057;-73
2022/04/15 10:56:18;;;;;;;3.10;2.80;;;;;;;17.50;56.74;100062.73;213956;1277;140471;-77
2022/04/15 11:01:21;;;;;;;2.80;2.60;;;;;;;17.48;56.55;100059.16;213778;1277;140340;-73
2022/04/15 11:06:26;;;;;;;3.80;3.10;;;;;;;17.46;56.27;100048.39;213797;1277;139762;-72
2022/04/15 11:11:39;;;;;;;3.90;3.50;;;;;;;17.06;56.26;100052.04;213672;1277;139524;-72
2022/04/15 11:16:50;;;;;;;4.10;3.80;;;;;;;16.88;56.49;100052.52;214243;1277;140451;-69
2022/04/15 11:21:54;;;;;;;4.80;3.50;;;;;;;17.04;56.57;100046.71;213706;1277;140014;-68
2022/04/15 11:27:03;;;;;;;4.10;3.50;;;;;;;17.17;56.43;100045.13;213650;1277;143161;-75
2022/04/15 11:32:08;;;;;;;4.50;4.10;;;;;;;17.12;56.00;100047.23;213060;1277;141878;-76
2022/04/15 11:37:11;;;;;;;6.10;4.90;;;;;;;16.82;55.77;100048.31;214270;1277;141362;-74
2022/04/15 11:42:17;;;;;;;5.20;4.10;;;;;;;16.47;55.82;100045.75;212977;1278;140928;-67
2022/04/15 11:47:19;;;;;;;6.20;4.90;;;;;;;16.01;56.32;100044.27;213027;1277;140782;-71
2022/04/15 11:52:27;;;;;;;7.30;5.30;;;;;;;15.62;57.03;100042.23;215659;1277;141072;-76
2022/04/15 11:57:31;;;;;;;6.50;5.40;;;;;;;15.18;58.56;100051.11;214641;1277;140707;-74
2022/04/15 12:02:33;;;;;;;6.20;4.90;;;;;;;15.02;59.82;100050.81;214453;1277;140808;-73
2022/04/15 12:07:37;;;;;;;8.10;5.40;;;;;;;15.21;60.65;100051.46;215849;1277;139717;-72
2022/04/15 12:12:52;;;;;;;5.90;5.00;;;;;;;15.90;60.92;100041.84;214887;1277;139890;-71
2022/04/15 12:17:55;;;;;;;5.80;5.20;;;;;;;16.34;59.65;100046.10;214888;1277;139845;-73
2022/04/15 12:23:00;;;;;;;4.00;3.70;;;;;;;16.15;58.85;100068.30;214634;1276;140658;-74
2022/04/15 12:29:47;;;;;;;1.50;1.40;;;;;;;15.65;57.96;100083.04;214919;1277;163942;-77
2022/04/15 12:33:32;;;;;;;3.40;2.40;;;;;;;15.31;57.89;100086.88;214444;1277;139706;-74
2022/04/15 12:39:03;;;;;;;2.70;2.50;;;;;;;15.53;58.64;100081.98;213828;1277;139360;-77
2022/04/15 12:44:31;;;;;;;2.20;1.90;;;;;;;15.84;58.37;100069.52;214376;1279;139944;-74
2022/04/15 12:49:35;;;;;;;4.50;4.10;;;;;;;16.19;58.15;100065.52;213686;1277;162398;-76
2022/04/15 12:54:57;;;;;;;5.40;4.80;;;;;;;16.24;58.48;100072.36;212951;1277;140674;-69
2022/04/15 13:00:03;;;;;;;6.70;5.60;;;;;;;15.90;58.38;100074.91;213236;1277;141082;-68
2022/04/15 13:05:07;;;;;;;6.80;6.00;;;;;;;15.53;59.07;100076.73;212909;1277;141698;-71
2022/04/15 13:10:12;;;;;;;5.10;4.70;;;;;;;15.43;59.91;100072.34;213423;1277;140917;-71
2022/04/15 13:15:35;;;;;;;5.80;5.10;;;;;;;15.50;60.34;100069.50;213072;1277;143228;-72
2022/04/15 13:20:37;;;;;;;5.80;5.20;;;;;;;15.40;60.20;100068.67;212645;1276;140764;-68
2022/04/15 13:25:40;;;;;;;4.80;4.30;;;;;;;15.32;60.11;100072.74;212918;1277;141253;-73
2022/04/15 13:30:42;;;;;;;3.40;3.10;;;;;;;15.32;60.40;100076.51;213040;1277;140639;-73
2022/04/15 13:35:44;;;;;;;3.90;3.00;;;;;;;15.29;60.08;100070.21;213409;1277;142812;-74
2022/04/15 13:40:47;;;;;;;2.60;2.40;;;;;;;15.45;60.02;100077.95;214080;1277;141611;-77
2022/04/15 13:45:50;;;;;;;3.00;2.80;;;;;;;15.63;59.65;100074.75;213893;1277;141530;-74
2022/04/15 13:50:54;;;;;;;2.50;2.40;;;;;;;15.53;59.47;100083.23;213126;1277;140769;-72
2022/04/15 14:01:27;;;;;;;3.70;2.90;;;;;;;15.11;59.35;100085.25;215953;1275;140562;-70
2022/04/15 14:06:30;;;;;;;3.80;3.30;;;;;;;14.91;59.47;100093.74;215870;1277;140079;-70
2022/04/15 14:11:40;;;;;;;13.10;4.30;;;;;;;14.74;59.79;100097.80;215420;1277;140361;-70
2022/04/15 14:16:47;;;;;;;3.90;3.50;;;;;;;14.65;60.05;100101.10;214103;1277;140009;-71
2022/04/15 14:21:50;;;;;;;5.80;4.20;;;;;;;14.43;60.12;100100.80;215677;1276;140767;-75
2022/04/15 14:26:55;;;;;;;5.30;2.80;;;;;;;14.17;60.64;100099.54;215157;1277;141161;-69
2022/04/15 14:31:59;;;;;;;4.00;3.60;;;;;;;14.03;60.86;100105.17;215139;1277;140580;-71
2022/04/15 14:37:03;;;;;;;5.30;3.70;;;;;;;13.95;61.55;100108.33;213907;1277;139827;-69
2022/04/15 14:42:07;;;;;;;5.40;4.90;;;;;;;13.83;61.94;100107.73;212910;1277;139454;-75
2022/04/15 14:47:12;;;;;;;5.20;4.40;;;;;;;13.58;62.21;100112.55;213025;1277;139689;-76
2022/04/15 14:52:16;;;;;;;9.10;5.70;;;;;;;13.35;62.51;100114.30;213570;1277;141453;-69
2022/04/15 14:57:19;;;;;;;7.30;3.70;;;;;;;13.01;63.10;100124.89;214249;1277;140529;-71
2022/04/15 15:02:22;;;;;;;6.50;4.30;;;;;;;12.66;63.40;100131.73;213315;1277;141873;-68
2022/04/15 15:07:25;;;;;;;3.60;2.80;;;;;;;12.40;63.96;100137.05;213076;1279;143002;-74
2022/04/15 15:12:30;;;;;;;3.60;2.50;;;;;;;12.12;64.37;100148.29;212737;1277;142096;-72
2022/04/15 15:17:33;;;;;;;3.50;2.80;;;;;;;11.87;65.02;100161.20;213180;1277;142670;-70
2022/04/15 15:22:36;;;;;;;3.70;3.30;;;;;;;11.62;65.72;100165.83;213450;1277;139939;-75
2022/04/15 15:33:00;;;;;;;8.60;4.50;;;;;;;11.35;67.04;100164.05;214198;1277;140583;-67
2022/04/15 15:38:05;;;;;;;3.70;3.40;;;;;;;11.31;67.78;100166.08;214451;1276;139698;-72
2022/04/15 15:43:08;;;;;;;6.50;4.70;;;;;;;11.27;67.98;100166.08;214652;1277;140852;-70
2022/04/15 15:48:13;;;;;;;4.00;3.60;;;;;;;11.29;68.44;100162.79;214788;1277;140332;-72
2022/04/15 15:53:17;;;;;;;6.40;4.50;;;;;;;11.32;68.59;100165.83;214391;1277;141192;-73
2022/04/15 15:58:21;;;;;;;5.50;5.00;;;;;;;11.30;68.85;100165.45;215359;1276;140457;-74
2022/04/15 16:03:25;;;;;;;5.10;4.70;;;;;;;11.28;69.03;100168.56;214804;1277;141121;-76
2022/04/15 16:08:30;;;;;;;7.70;4.30;;;;;;;11.26;69.34;100168.02;215531;1276;142874;-73
2022/04/15 16:13:34;;;;;;;6.90;4.90;;;;;;;11.29;69.41;100172.33;215639;1277;142834;-74
2022/04/15 16:18:39;;;;;;;5.70;5.20;;;;;;;11.31;69.48;100170.89;215198;1277;141872;-75
2022/04/15 16:23:42;;;;;;;5.50;5.00;;;;;;;11.27;69.41;100171.90;213123;1276;141701;-75
2022/04/15 16:28:46;;;;;;;6.80;5.20;;;;;;;11.16;69.69;100178.02;214072;1276;141631;-73
2022/04/15 16:33:48;;;;;;;5.40;4.90;;;;;;;11.05;69.90;100179.23;214228;1277;140584;-70
2022/04/15 16:38:50;;;;;;;8.80;6.30;;;;;;;10.97;70.16;100182.23;212299;1279;141427;-69
2022/04/15 16:43:54;;;;;;;6.60;6.00;;;;;;;10.92;70.54;100185.29;214555;1277;140798;-72
2022/04/15 16:48:57;;;;;;;7.60;6.20;;;;;;;10.92;70.86;100186.14;213950;1277;140757;-73
2022/04/15 16:54:01;;;;;;;7.30;6.20;;;;;;;10.91;70.88;100190.39;212742;1276;140636;-70
2022/04/15 16:59:03;;;;;;;7.00;6.20;;;;;;;10.86;71.16;100192.05;213142;1276;139970;-73
2022/04/15 17:04:08;;;;;;;7.70;6.60;;;;;;;10.76;71.31;100197.59;213152;1277;141364;-71
2022/04/15 17:09:11;;;;;;;10.10;6.40;;;;;;;10.68;71.55;100198.08;213464;1276;139888;-73
2022/04/15 17:14:15;;;;;;;6.60;5.60;;;;;;;10.61;71.80;100199.27;213767;1277;142875;-70
2022/04/15 17:19:18;;;;;;;5.50;4.90;;;;;;;10.59;72.01;100204.26;212851;1277;140341;-65
2022/04/15 17:24:22;;;;;;;6.20;5.60;;;;;;;10.51;72.16;100206.59;212861;1277;142561;-74
2022/04/15 17:29:26;;;;;;;6.20;5.60;;;;;;;10.42;72.47;100214.65;213966;1277;139856;-74
2022/04/15 17:34:29;;;;;;;6.10;5.60;;;;;;;10.36;72.84;100227.64;212690;1277;141507;-68
2022/04/15 17:39:33;;;;;;;7.20;5.60;;;;;;;10.32;73.08;100236.41;212554;1277;140333;-73
2022/04/15 17:44:36;;;;;;;11.90;9.20;;;;;;;10.10;72.98;100246.46;214157;1278;140988;-75
2022/04/15 17:49:39;;;;;;;16.40;11.70;;;;;;;9.88;72.93;100253.70;214407;1277;140568;-75
2022/04/15 17:54:41;;;;;;;23.30;12.60;;;;;;;9.60;73.11;100261.04;213015;1276;140618;-74
2022/04/15 17:59:44;;;;;;;19.20;14.70;;;;;;;9.36;73.28;100265.05;213819;1277;140424;-69
2022/04/15 18:04:47;;;;;;;24.50;17.00;;;;;;;9.27;73.77;100269.02;215244;1276;140738;-69
2022/04/15 18:09:49;;;;;;;19.90;16.00;;;;;;;9.15;73.63;100279.44;215374;1277;140851;-69
2022/04/15 18:14:51;;;;;;;24.20;16.40;;;;;;;9.04;74.26;100280.72;215461;1277;141500;-66
2022/04/15 18:19:57;;;;;;;20.20;14.60;;;;;;;9.00;74.32;100294.27;213907;1276;141873;-71
2022/04/15 18:25:01;;;;;;;21.40;15.90;;;;;;;8.86;74.16;100300.79;214653;1276;140335;-71
2022/04/15 18:30:05;;;;;;;24.80;14.30;;;;;;;8.68;74.22;100315.11;215115;1277;140868;-68
2022/04/15 18:35:11;;;;;;;21.10;13.20;;;;;;;8.50;74.55;100325.53;213038;1277;140755;-66
2022/04/15 18:40:13;;;;;;;18.20;10.20;;;;;;;8.37;74.63;100336.48;212996;1276;140570;-74
2022/04/15 18:45:17;;;;;;;15.60;11.60;;;;;;;8.23;74.86;100340.27;214320;1279;141159;-75
2022/04/15 18:55:42;;;;;;;14.90;9.60;;;;;;;7.97;74.60;100349.79;213893;1276;141273;-66
2022/04/15 19:00:45;;;;;;;15.70;9.90;;;;;;;7.84;74.93;100354.34;213759;1277;140730;-70
2022/04/15 19:05:49;;;;;;;13.90;9.30;;;;;;;7.70;75.25;100357.65;212841;1276;140455;-74
2022/04/15 19:10:56;;;;;;;11.40;8.30;;;;;;;7.59;75.40;100365.67;213768;1277;140994;-71
2022/04/15 19:16:00;;;;;;;15.10;10.10;;;;;;;7.50;75.27;100367.73;213662;1277;139458;-68
2022/04/15 19:21:03;;;;;;;18.00;11.70;;;;;;;7.42;75.36;100373.89;212795;1276;141012;-68
2022/04/15 19:26:06;;;;;;;14.50;9.60;;;;;;;7.31;75.31;100376.91;213445;1277;140913;-70
2022/04/15 19:31:09;;;;;;;16.60;10.50;;;;;;;7.22;75.87;100378.14;212740;1277;141352;-67
2022/04/15 19:36:12;;;;;;;25.80;15.20;;;;;;;7.14;76.07;100383.88;213249;1277;141331;-74
2022/04/15 19:41:16;;;;;;;18.50;10.10;;;;;;;7.04;76.02;100390.66;213152;1277;142414;-66
2022/04/15 19:46:19;;;;;;;19.00;11.50;;;;;;;6.97;76.07;100391.89;214489;1277;142002;-68
2022/04/15 19:51:23;;;;;;;16.60;10.90;;;;;;;6.90;76.33;100390.83;212881;1277;165630;-73
2022/04/15 20:02:08;;;;;;;17.90;9.70;;;;;;;6.83;76.71;100396.18;212779;1277;142332;-68
2022/04/15 20:07:12;;;;;;;16.60;9.30;;;;;;;6.79;76.96;100395.19;214253;1277;142073;-68
2022/04/15 20:12:20;;;;;;;9.70;6.70;;;;;;;6.74;76.88;100400.40;213946;1277;141419;-74
2022/04/15 20:17:26;;;;;;;16.40;9.70;;;;;;;6.67;76.82;100401.11;215357;1277;141784;-74
2022/04/15 20:22:30;;;;;;;12.10;8.40;;;;;;;6.65;76.75;100405.25;214247;1277;141855;-71
2022/04/15 20:27:34;;;;;;;15.50;10.00;;;;;;;6.59;77.03;100410.98;215096;1279;141758;-71
2022/04/15 20:32:38;;;;;;;12.00;9.00;;;;;;;6.59;76.94;100417.27;214830;1277;142044;-71
2022/04/15 20:37:47;;;;;;;15.60;8.60;;;;;;;6.54;77.23;100421.86;215240;1277;140909;-70
2022/04/15 20:42:52;;;;;;;9.70;7.10;;;;;;;6.48;77.17;100422.67;215072;1277;140889;-72
2022/04/15 20:47:55;;;;;;;10.70;7.10;;;;;;;6.37;77.09;100433.17;214394;1277;140358;-69
2022/04/15 20:52:59;;;;;;;14.50;8.00;;;;;;;6.27;77.36;100427.41;213487;1277;141064;-70
2022/04/15 20:58:02;;;;;;;18.80;10.10;;;;;;;6.20;77.53;100435.42;213325;1278;142410;-68
2022/04/15 21:03:05;;;;;;;9.90;7.50;;;;;;;6.13;77.48;100439.90;213261;1278;140705;-68
2022/04/15 21:08:07;;;;;;;13.80;8.30;;;;;;;6.09;77.77;100439.33;212992;1277;140638;-64
2022/04/15 21:13:12;;;;;;;12.10;7.70;;;;;;;6.08;78.12;100437.14;214222;1278;140590;-68
2022/04/15 21:18:15;;;;;;;12.00;9.80;;;;;;;6.00;77.82;100441.09;213256;1275;141047;-72
2022/04/15 21:23:40;;;;;;;15.50;11.20;;;;;;;5.90;78.14;100448.69;213130;1278;140306;-73
2022/04/15 21:28:43;;;;;;;11.80;7.60;;;;;;;5.81;78.23;100455.42;212863;1276;140183;-75
2022/04/15 21:33:46;;;;;;;10.50;8.00;;;;;;;5.75;78.22;100457.36;212889;1276;140515;-72
2022/04/15 21:38:49;;;;;;;12.30;10.30;;;;;;;5.70;78.24;100460.42;213453;1277;140174;-69
2022/04/15 21:43:53;;;;;;;13.00;7.60;;;;;;;5.61;78.33;100468.07;213903;1277;143955;-71
2022/04/15 21:48:57;;;;;;;9.60;6.50;;;;;;;5.55;78.54;100478.25;213321;1278;140907;-68
2022/04/15 21:53:59;;;;;;;7.40;6.60;;;;;;;5.48;78.73;100481.14;213885;1276;140256;-73
2022/04/15 21:59:03;;;;;;;8.40;6.60;;;;;;;5.42;78.84;100483.02;213496;1278;140464;-69
2022/04/15 22:04:07;;;;;;;9.60;7.70;;;;;;;5.37;78.74;100489.09;213770;1277;140212;-70
2022/04/15 22:09:11;;;;;;;11.60;8.70;;;;;;;5.32;79.07;100491.36;214187;1277;141330;-71
2022/04/15 22:14:22;;;;;;;11.00;7.50;;;;;;;5.32;79.35;100496.02;213434;1278;140716;-72
2022/04/15 22:19:26;;;;;;;11.50;6.60;;;;;;;5.33;79.17;100493.63;212819;1277;140175;-69
2022/04/15 22:24:29;;;;;;;12.20;9.00;;;;;;;5.29;79.32;100498.36;212735;1279;141083;-69
2022/04/15 22:29:33;;;;;;;10.60;7.80;;;;;;;5.26;79.34;100505.55;214953;1276;140760;-74
2022/04/15 22:34:35;;;;;;;11.30;8.00;;;;;;;5.23;79.42;100511.36;215704;1277;141438;-75
2022/04/15 22:39:37;;;;;;;11.50;7.70;;;;;;;5.23;79.58;100512.86;213967;1278;142127;-71
2022/04/15 22:44:40;;;;;;;10.90;6.80;;;;;;;5.21;79.65;100516.41;215271;1278;142502;-73
2022/04/15 22:49:45;;;;;;;9.00;6.70;;;;;;;5.18;79.38;100517.86;213828;1277;357877;-74
2022/04/15 23:00:10;;;;;;;11.30;7.20;;;;;;;5.16;79.77;100517.58;214304;1279;140788;-71
2022/04/15 23:05:14;;;;;;;15.00;7.40;;;;;;;5.18;79.82;100522.98;213497;1278;142178;-72
2022/04/15 23:10:18;;;;;;;12.80;7.70;;;;;;;5.15;79.77;100528.78;214285;1277;141096;-72
2022/04/15 23:15:21;;;;;;;15.20;7.30;;;;;;;5.13;79.75;100530.58;213996;1277;142769;-69
2022/04/15 23:20:27;;;;;;;12.60;7.70;;;;;;;5.10;79.95;100529.39;213824;1278;140566;-70